createdAt,value
2023-02-11T00:00:57.217Z,76.10
2023-02-11T00:03:23.678Z,75.82
2023-02-11T00:06:06.038Z,75.69
2023-02-11T00:08:32.431Z,76.15
2023-02-11T00:10:58.962Z,75.70
2023-02-11T00:13:25.912Z,76.14
2023-02-11T00:15:52.810Z,75.84
2023-02-11T00:18:19.319Z,76.13
2023-02-11T00:20:45.715Z,76.46
2023-02-11T00:23:12.255Z,76.79
2023-02-11T00:25:40.843Z,76.10
2023-02-11T00:28:07.709Z,76.40
2023-02-11T00:30:34.575Z,76.77
2023-02-11T00:33:01.359Z,76.90
2023-02-11T00:35:27.762Z,76.51
2023-02-11T00:37:55.304Z,77.52
2023-02-11T00:40:22.065Z,77.12
2023-02-11T00:42:48.598Z,77.53
2023-02-11T00:45:15.005Z,78.02
2023-02-11T00:47:41.460Z,77.67
2023-02-11T00:50:08.335Z,78.09
2023-02-11T00:52:34.727Z,77.21
2023-02-11T00:55:02.181Z,77.53
2023-02-11T00:57:28.617Z,78.00
2023-02-11T00:59:55.038Z,77.88
2023-02-11T01:02:21.980Z,77.78
2023-02-11T01:04:48.489Z,77.88
2023-02-11T01:07:14.949Z,78.19
2023-02-11T01:09:41.419Z,78.85
2023-02-11T01:12:07.854Z,78.29
2023-02-11T01:14:34.299Z,78.23
2023-02-11T01:17:00.722Z,78.24
2023-02-11T01:19:27.152Z,78.83
2023-02-11T01:21:53.542Z,78.77
2023-02-11T01:24:21.705Z,79.02
2023-02-11T01:26:48.107Z,78.44
2023-02-11T01:29:14.489Z,78.26
2023-02-11T01:31:41.064Z,78.81
2023-02-11T01:34:07.527Z,78.49
2023-02-11T01:36:36.659Z,78.05
2023-02-11T01:39:03.739Z,78.68
2023-02-11T01:41:30.312Z,78.74
2023-02-11T01:43:57.544Z,78.61
2023-02-11T01:46:29.710Z,78.93
2023-02-11T01:49:03.118Z,78.54
2023-02-11T01:51:36.848Z,78.92
2023-02-11T01:54:25.128Z,78.56
2023-02-11T01:57:13.932Z,78.77
2023-02-11T01:59:47.414Z,78.88
2023-02-11T02:02:16.568Z,79.22
2023-02-11T02:05:26.191Z,79.33
2023-02-11T02:08:34.843Z,78.74
2023-02-11T02:11:02.281Z,78.95
2023-02-11T02:13:31.483Z,78.72
2023-02-11T02:16:00.992Z,79.40
2023-02-11T02:18:49.183Z,79.39
2023-02-11T02:22:02.250Z,79.23
2023-02-11T02:24:37.678Z,79.07
2023-02-11T02:27:32.172Z,79.10
2023-02-11T02:30:25.812Z,79.83
2023-02-11T02:33:02.165Z,79.41
2023-02-11T02:35:45.919Z,79.71
2023-02-11T02:38:28.701Z,79.21
2023-02-11T02:41:01.329Z,79.19
2023-02-11T02:43:30.160Z,79.35
2023-02-11T02:46:10.434Z,79.14
2023-02-11T02:48:36.886Z,79.37
2023-02-11T02:51:25.176Z,79.54
2023-02-11T02:54:15.813Z,79.49
2023-02-11T02:56:53.447Z,78.52
2023-02-11T02:59:31.076Z,79.30
2023-02-11T03:02:18.138Z,79.61
2023-02-11T03:04:44.483Z,79.32
2023-02-11T03:07:51.212Z,79.33
2023-02-11T03:10:23.011Z,79.04
2023-02-11T03:12:51.688Z,79.32
2023-02-11T03:15:20.480Z,80.33
2023-02-11T03:17:49.750Z,79.53
2023-02-11T03:20:18.768Z,80.01
2023-02-11T03:23:02.209Z,80.57
2023-02-11T03:25:34.612Z,80.33
2023-02-11T03:28:15.758Z,79.72
2023-02-11T03:30:49.352Z,79.76
2023-02-11T03:33:29.237Z,79.87
2023-02-11T03:36:00.094Z,79.78
2023-02-11T03:38:33.471Z,80.00
2023-02-11T03:41:04.620Z,79.87
2023-02-11T03:43:35.624Z,80.14
2023-02-11T03:46:03.510Z,80.31
2023-02-11T03:48:32.903Z,80.14
2023-02-11T03:51:05.293Z,80.51
2023-02-11T03:53:31.676Z,80.32
2023-02-11T03:56:02.540Z,80.69
2023-02-11T03:58:28.953Z,80.78
2023-02-11T04:00:55.390Z,80.50
2023-02-11T04:03:21.858Z,80.92
2023-02-11T04:05:48.944Z,80.90
2023-02-11T04:08:15.417Z,81.25
2023-02-11T04:10:41.828Z,80.97
2023-02-11T04:13:08.239Z,81.11
2023-02-11T04:15:34.652Z,81.35
2023-02-11T04:18:01.948Z,81.34
2023-02-11T04:20:28.350Z,80.77
2023-02-11T04:22:54.783Z,81.60
2023-02-11T04:25:21.233Z,81.48
2023-02-11T04:27:47.644Z,81.08
2023-02-11T04:30:14.323Z,81.79
2023-02-11T04:32:40.759Z,82.17
2023-02-11T04:35:07.404Z,82.08
2023-02-11T04:37:33.985Z,82.06
2023-02-11T04:40:00.419Z,81.99
2023-02-11T04:42:27.136Z,81.92
2023-02-11T04:44:53.528Z,82.13
2023-02-11T04:47:20.018Z,82.11
2023-02-11T04:49:46.443Z,81.52
2023-02-11T04:52:12.869Z,82.43
2023-02-11T04:54:39.377Z,81.94
2023-02-11T04:57:05.762Z,82.09
2023-02-11T04:59:32.124Z,81.70
2023-02-11T05:01:58.476Z,81.71
2023-02-11T05:04:24.952Z,82.09
2023-02-11T05:06:51.434Z,82.12
2023-02-11T05:09:18.204Z,81.78
2023-02-11T05:11:44.637Z,81.82
2023-02-11T05:14:11.081Z,82.03
2023-02-11T05:16:37.570Z,81.56
2023-02-11T05:19:04.612Z,81.42
2023-02-11T05:21:31.166Z,81.87
2023-02-11T05:23:58.037Z,81.81
2023-02-11T05:26:24.455Z,82.21
2023-02-11T05:28:50.898Z,82.10
2023-02-11T05:31:17.506Z,82.14
2023-02-11T05:33:44.148Z,82.16
2023-02-11T05:36:13.309Z,81.76
2023-02-11T05:38:40.027Z,82.14
2023-02-11T05:41:06.753Z,81.78
2023-02-11T05:43:35.116Z,81.82
2023-02-11T05:46:01.653Z,82.46
2023-02-11T05:48:28.091Z,81.82
2023-02-11T05:50:54.451Z,81.92
2023-02-11T05:53:20.863Z,81.44
2023-02-11T05:55:47.330Z,81.16
2023-02-11T05:58:13.756Z,81.64
2023-02-11T06:00:40.224Z,81.89
2023-02-11T06:03:06.756Z,81.81
2023-02-11T06:05:33.201Z,82.46
2023-02-11T06:07:59.880Z,82.26
2023-02-11T06:10:26.985Z,82.61
2023-02-11T06:12:53.411Z,82.57
2023-02-11T06:15:19.863Z,82.87
2023-02-11T06:17:46.220Z,82.76
2023-02-11T06:20:12.684Z,82.63
2023-02-11T06:22:39.191Z,82.90
2023-02-11T06:25:06.003Z,82.88
2023-02-11T06:27:32.412Z,82.89
2023-02-11T06:29:58.808Z,83.02
2023-02-11T06:32:43.406Z,82.47
2023-02-11T06:35:12.424Z,82.73
2023-02-11T06:37:39.865Z,82.97
2023-02-11T06:40:06.960Z,83.13
2023-02-11T06:42:34.468Z,82.84
2023-02-11T06:45:00.872Z,82.99
2023-02-11T06:47:27.286Z,83.03
2023-02-11T06:49:53.672Z,82.62
2023-02-11T06:52:20.086Z,83.15
2023-02-11T06:54:46.571Z,83.54
2023-02-11T06:57:12.992Z,82.54
2023-02-11T06:59:39.386Z,83.11
2023-02-11T07:02:05.782Z,83.26
2023-02-11T07:04:32.268Z,82.75
2023-02-11T07:06:58.753Z,82.48
2023-02-11T07:09:25.204Z,82.95
2023-02-11T07:11:51.664Z,82.65
2023-02-11T07:14:18.239Z,82.77
2023-02-11T07:16:44.642Z,82.85
2023-02-11T07:19:11.086Z,82.17
2023-02-11T07:21:37.546Z,82.69
2023-02-11T07:24:10.744Z,82.65
2023-02-11T07:26:37.559Z,82.55
2023-02-11T07:29:03.962Z,82.73
2023-02-11T07:31:31.359Z,82.14
2023-02-11T07:33:59.990Z,82.38
2023-02-11T07:36:27.925Z,82.01
2023-02-11T07:38:54.408Z,82.16
2023-02-11T07:41:23.240Z,82.70
2023-02-11T07:43:50.215Z,82.78
2023-02-11T07:46:23.037Z,82.65
2023-02-11T07:48:49.581Z,82.25
2023-02-11T07:51:22.920Z,82.45
2023-02-11T07:53:50.382Z,83.00
2023-02-11T07:56:18.491Z,82.19
2023-02-11T07:58:45.038Z,82.72
2023-02-11T08:01:14.704Z,82.21
2023-02-11T08:03:42.679Z,82.23
2023-02-11T08:06:11.713Z,82.81
2023-02-11T08:08:38.346Z,82.53
2023-02-11T08:11:13.879Z,82.08
2023-02-11T08:13:41.229Z,82.27
2023-02-11T08:16:08.494Z,82.35
2023-02-11T08:18:35.460Z,84.81
2023-02-11T08:21:09.460Z,83.00
2023-02-11T08:23:37.453Z,81.67
2023-02-11T08:26:05.523Z,81.29
2023-02-11T08:28:32.194Z,81.62
2023-02-11T08:30:58.662Z,81.63
2023-02-11T08:33:25.249Z,81.75
2023-02-11T08:35:51.662Z,81.85
2023-02-11T08:38:18.032Z,82.04
2023-02-11T08:40:44.398Z,81.79
2023-02-11T08:43:10.755Z,82.26
2023-02-11T08:45:37.433Z,82.11
2023-02-11T08:48:03.991Z,82.32
2023-02-11T08:50:30.398Z,81.69
2023-02-11T08:52:56.799Z,81.49
2023-02-11T08:55:23.167Z,82.05
2023-02-11T08:57:49.559Z,82.35
2023-02-11T09:00:16.589Z,81.29
2023-02-11T09:02:43.099Z,82.13
2023-02-11T09:05:09.616Z,81.80
2023-02-11T09:07:35.979Z,82.08
2023-02-11T09:10:02.387Z,81.77
2023-02-11T09:12:28.813Z,81.61
2023-02-11T09:14:55.189Z,81.81
2023-02-11T09:17:21.572Z,81.85
2023-02-11T09:19:47.985Z,81.86
2023-02-11T09:22:14.355Z,81.65
2023-02-11T09:24:40.794Z,81.25
2023-02-11T09:27:07.303Z,81.79
2023-02-11T09:29:33.714Z,80.96
2023-02-11T09:32:00.283Z,81.11
2023-02-11T09:34:26.968Z,81.37
2023-02-11T09:36:53.400Z,81.79
2023-02-11T09:39:20.385Z,81.32
2023-02-11T09:42:05.393Z,80.65
2023-02-11T09:44:34.416Z,80.85
2023-02-11T09:47:04.771Z,81.13
2023-02-11T09:49:40.361Z,80.77
2023-02-11T09:52:40.892Z,80.48
2023-02-11T09:55:38.022Z,80.79
2023-02-11T09:58:11.865Z,80.04
2023-02-11T10:00:44.978Z,80.19
2023-02-11T10:03:14.436Z,80.00
2023-02-11T10:05:52.988Z,80.04
2023-02-11T10:08:27.377Z,80.09
2023-02-11T10:11:04.562Z,80.66
2023-02-11T10:13:41.472Z,80.05
2023-02-11T10:16:30.969Z,80.10
2023-02-11T10:19:22.088Z,80.09
2023-02-11T10:21:58.710Z,79.96
2023-02-11T10:24:25.394Z,79.78
2023-02-11T10:26:51.914Z,79.88
2023-02-11T10:29:40.531Z,79.55
2023-02-11T10:32:21.383Z,79.56
2023-02-11T10:34:47.975Z,79.08
2023-02-11T10:37:14.690Z,79.22
2023-02-11T10:39:41.383Z,78.93
2023-02-11T10:42:12.142Z,79.07
2023-02-11T10:44:54.861Z,79.08
2023-02-11T10:47:24.074Z,78.73
2023-02-11T10:49:50.695Z,79.51
2023-02-11T10:52:24.371Z,79.01
2023-02-11T10:55:05.452Z,79.12
2023-02-11T10:57:34.537Z,78.78
2023-02-11T11:00:50.341Z,78.81
2023-02-11T11:03:23.304Z,78.14
2023-02-11T11:06:01.929Z,78.83
2023-02-11T11:08:48.216Z,78.53
2023-02-11T11:11:21.636Z,78.73
2023-02-11T11:13:53.968Z,78.05
2023-02-11T11:16:23.650Z,77.94
2023-02-11T11:19:09.984Z,77.99
2023-02-11T11:21:47.218Z,77.84
2023-02-11T11:24:31.261Z,78.37
2023-02-11T11:27:01.763Z,78.59
2023-02-11T11:29:35.740Z,78.16
2023-02-11T11:32:13.078Z,78.00
2023-02-11T11:34:44.969Z,77.80
2023-02-11T11:37:23.795Z,77.81
2023-02-11T11:40:10.979Z,77.65
2023-02-11T11:42:39.118Z,77.62
2023-02-11T11:45:22.810Z,77.35
2023-02-11T11:47:52.348Z,77.55
2023-02-11T11:50:39.732Z,77.93
2023-02-11T11:53:24.992Z,77.76
2023-02-11T11:56:36.659Z,77.90
2023-02-11T11:59:11.152Z,77.60
2023-02-11T12:02:18.941Z,77.22
2023-02-11T12:05:12.586Z,77.10
2023-02-11T12:08:03.784Z,77.11
2023-02-11T12:11:02.659Z,76.94
2023-02-11T12:13:49.688Z,76.65
2023-02-11T12:16:48.118Z,76.55
2023-02-11T12:19:24.437Z,76.75
2023-02-11T12:22:09.356Z,76.56
2023-02-11T12:24:59.633Z,76.49
2023-02-11T12:27:26.000Z,76.63
2023-02-11T12:30:01.712Z,76.38
2023-02-11T12:32:46.940Z,76.29
2023-02-11T12:35:16.362Z,76.34
2023-02-11T12:38:15.966Z,76.29
2023-02-11T12:40:49.958Z,75.50
2023-02-11T12:43:22.670Z,75.54
2023-02-11T12:46:04.783Z,75.45
2023-02-11T12:48:41.171Z,74.97
2023-02-11T12:51:28.913Z,74.34
2023-02-11T12:54:19.734Z,73.89
2023-02-11T12:56:48.891Z,73.55
2023-02-11T12:59:29.560Z,73.21
2023-02-11T13:01:57.793Z,73.03
2023-02-11T13:04:36.518Z,72.86
2023-02-11T13:07:10.667Z,73.06
2023-02-11T13:09:48.905Z,71.77
2023-02-11T13:12:34.376Z,72.58
2023-02-11T13:15:06.536Z,73.59
2023-02-11T13:18:00.939Z,73.37
2023-02-11T13:20:51.632Z,73.29
2023-02-11T13:23:53.904Z,73.63
2023-02-11T13:26:38.233Z,72.96
2023-02-11T13:29:30.926Z,73.59
2023-02-11T13:32:15.797Z,73.63
2023-02-11T13:34:42.093Z,73.63
2023-02-11T13:37:31.699Z,73.32
2023-02-11T13:40:07.222Z,73.41
2023-02-11T13:42:47.448Z,72.17
2023-02-11T13:45:28.025Z,72.56
2023-02-11T13:47:59.764Z,72.39
2023-02-11T13:50:27.445Z,72.75
2023-02-11T13:53:02.415Z,72.30
2023-02-11T13:55:29.897Z,72.23
2023-02-11T13:58:05.548Z,72.81
2023-02-11T14:00:35.054Z,73.07
2023-02-11T14:03:29.102Z,73.13
2023-02-11T14:06:32.428Z,72.83
2023-02-11T14:09:14.046Z,72.54
2023-02-11T14:11:43.223Z,72.78
2023-02-11T14:14:21.693Z,72.87
2023-02-11T14:17:03.058Z,72.40
2023-02-11T14:19:44.136Z,72.93
2023-02-11T14:22:11.748Z,72.65
2023-02-11T14:24:38.168Z,72.72
2023-02-11T14:27:10.846Z,72.88
2023-02-11T14:30:15.016Z,73.10
2023-02-11T14:32:56.428Z,72.80
2023-02-11T14:35:43.767Z,72.78
2023-02-11T14:38:40.776Z,72.70
2023-02-11T14:41:21.804Z,73.17
2023-02-11T14:43:52.728Z,72.54
2023-02-11T14:46:20.922Z,72.28
2023-02-11T14:48:50.384Z,72.42
2023-02-11T14:51:25.764Z,72.44
2023-02-11T14:53:59.136Z,72.33
2023-02-11T14:56:30.999Z,72.89
2023-02-11T14:58:58.111Z,72.89
2023-02-11T15:01:35.092Z,72.60
2023-02-11T15:04:03.501Z,72.98
2023-02-11T15:06:47.184Z,72.42
2023-02-11T15:09:17.859Z,72.15
2023-02-11T15:11:48.359Z,73.63
2023-02-11T15:14:25.669Z,72.65
2023-02-11T15:16:54.199Z,72.65
2023-02-11T15:19:32.341Z,72.80
2023-02-11T15:22:00.597Z,73.67
2023-02-11T15:24:32.766Z,73.30
2023-02-11T15:27:16.132Z,72.52
2023-02-11T15:29:49.509Z,72.29
2023-02-11T15:32:22.045Z,72.60
2023-02-11T15:34:50.254Z,72.63
2023-02-11T15:37:25.685Z,72.70
2023-02-11T15:39:53.975Z,72.89
2023-02-11T15:42:24.042Z,72.85
2023-02-11T15:45:08.494Z,72.71
2023-02-11T15:47:35.449Z,73.15
2023-02-11T15:50:02.367Z,73.08
2023-02-11T15:52:29.412Z,73.61
2023-02-11T15:55:01.587Z,73.51
2023-02-11T15:57:28.648Z,73.60
2023-02-11T16:00:04.204Z,72.60
2023-02-11T16:02:44.951Z,73.38
2023-02-11T16:05:33.691Z,73.56
2023-02-11T16:08:02.200Z,73.61
2023-02-11T16:10:31.667Z,73.34
2023-02-11T16:13:17.094Z,73.49
2023-02-11T16:15:58.281Z,73.14
2023-02-11T16:18:40.258Z,73.37
2023-02-11T16:21:15.888Z,73.75
2023-02-11T16:23:49.071Z,73.36
2023-02-11T16:26:29.998Z,74.03
2023-02-11T16:29:10.619Z,73.75
2023-02-11T16:31:40.927Z,73.64
2023-02-11T16:34:24.991Z,73.66
2023-02-11T16:36:52.444Z,72.96
2023-02-11T16:39:23.635Z,73.50
2023-02-11T16:41:51.326Z,73.28
2023-02-11T16:44:18.224Z,73.87
2023-02-11T16:46:44.882Z,73.27
2023-02-11T16:49:20.372Z,73.75
2023-02-11T16:51:49.749Z,73.33
2023-02-11T16:54:17.465Z,73.08
2023-02-11T16:56:44.122Z,73.11
2023-02-11T16:59:11.883Z,73.86
2023-02-11T17:01:40.199Z,73.97
2023-02-11T17:04:10.530Z,73.44
2023-02-11T17:06:37.021Z,73.40
2023-02-11T17:09:05.643Z,73.99
2023-02-11T17:11:32.101Z,73.94
2023-02-11T17:13:58.546Z,73.79
2023-02-11T17:16:25.039Z,73.73
2023-02-11T17:18:51.716Z,74.20
2023-02-11T17:21:18.148Z,73.67
2023-02-11T17:23:45.920Z,73.94
2023-02-11T17:26:12.445Z,73.91
2023-02-11T17:28:38.898Z,74.06
2023-02-11T17:31:09.348Z,73.83
2023-02-11T17:33:37.702Z,74.00
2023-02-11T17:36:06.699Z,73.64
2023-02-11T17:38:33.962Z,73.87
2023-02-11T17:41:02.023Z,73.94
2023-02-11T17:43:28.514Z,74.34
2023-02-11T17:45:55.160Z,73.71
2023-02-11T17:48:21.696Z,74.13
2023-02-11T17:50:48.056Z,74.50
2023-02-11T17:53:14.731Z,74.76
2023-02-11T17:55:41.092Z,74.77
2023-02-11T17:58:07.605Z,74.85
2023-02-11T18:00:34.195Z,74.66
2023-02-11T18:03:03.677Z,74.25
2023-02-11T18:05:37.001Z,74.29
2023-02-11T18:08:05.116Z,74.68
2023-02-11T18:10:33.440Z,74.21
2023-02-11T18:13:00.998Z,74.25
2023-02-11T18:15:27.461Z,74.24
2023-02-11T18:17:55.154Z,74.50
2023-02-11T18:20:21.631Z,74.29
2023-02-11T18:22:48.116Z,73.84
2023-02-11T18:25:15.263Z,74.52
2023-02-11T18:27:41.934Z,74.50
2023-02-11T18:30:15.376Z,74.81
2023-02-11T18:32:42.031Z,74.43
2023-02-11T18:35:14.860Z,74.12
2023-02-11T18:37:42.690Z,74.06
2023-02-11T18:40:10.438Z,74.14
2023-02-11T18:42:36.868Z,74.45
2023-02-11T18:45:05.363Z,74.60
2023-02-11T18:47:32.333Z,74.56
2023-02-11T18:49:58.716Z,74.46
2023-02-11T18:52:25.176Z,74.66
2023-02-11T18:54:52.279Z,74.25
2023-02-11T18:57:18.685Z,75.25
2023-02-11T18:59:45.172Z,74.75
2023-02-11T19:02:12.009Z,75.24
2023-02-11T19:04:38.531Z,74.91
2023-02-11T19:07:05.055Z,75.05
2023-02-11T19:09:31.632Z,74.61
2023-02-11T19:11:59.826Z,74.88
2023-02-11T19:14:31.275Z,74.82
2023-02-11T19:16:59.240Z,74.98
2023-02-11T19:19:28.721Z,74.38
2023-02-11T19:21:55.990Z,75.02
2023-02-11T19:24:23.538Z,74.52
2023-02-11T19:26:52.076Z,74.76
2023-02-11T19:29:18.703Z,74.90
2023-02-11T19:31:45.540Z,74.88
2023-02-11T19:34:14.024Z,75.05
2023-02-11T19:36:41.036Z,75.06
2023-02-11T19:39:07.685Z,74.45
2023-02-11T19:41:34.455Z,74.92
2023-02-11T19:44:02.294Z,74.88
2023-02-11T19:46:32.025Z,74.71
2023-02-11T19:49:00.337Z,74.38
2023-02-11T19:51:27.190Z,74.78
2023-02-11T19:53:53.942Z,74.80
2023-02-11T19:56:21.000Z,75.11
2023-02-11T19:58:47.693Z,74.71
2023-02-11T20:01:19.964Z,74.85
2023-02-11T20:03:51.358Z,74.78
2023-02-11T20:06:20.840Z,74.84
2023-02-11T20:08:47.273Z,74.83
2023-02-11T20:11:17.472Z,74.60
2023-02-11T20:13:44.678Z,74.91
2023-02-11T20:16:14.413Z,74.23
2023-02-11T20:18:41.318Z,74.86
2023-02-11T20:21:16.110Z,74.95
2023-02-11T20:23:44.823Z,74.41
2023-02-11T20:26:14.509Z,74.50
2023-02-11T20:28:41.692Z,74.95
2023-02-11T20:31:10.920Z,74.53
2023-02-11T20:33:38.242Z,74.86
2023-02-11T20:36:10.530Z,74.44
2023-02-11T20:38:37.334Z,74.79
2023-02-11T20:41:06.892Z,75.01
2023-02-11T20:43:34.403Z,75.04
2023-02-11T20:46:04.366Z,74.91
2023-02-11T20:48:31.847Z,74.83
2023-02-11T20:51:10.127Z,74.99
2023-02-11T20:53:43.859Z,75.07
2023-02-11T20:56:12.075Z,74.63
2023-02-11T20:58:39.067Z,74.69
2023-02-11T21:01:23.411Z,74.58
2023-02-11T21:03:52.658Z,74.54
2023-02-11T21:06:20.707Z,74.85
2023-02-11T21:08:47.593Z,75.01
2023-02-11T21:11:14.674Z,74.66
2023-02-11T21:13:42.698Z,74.62
2023-02-11T21:16:14.727Z,74.88
2023-02-11T21:18:41.482Z,75.09
2023-02-11T21:21:08.095Z,74.51
2023-02-11T21:23:35.677Z,74.40
2023-02-11T21:26:02.292Z,74.86
2023-02-11T21:28:28.862Z,74.69
2023-02-11T21:30:57.045Z,75.12
2023-02-11T21:33:25.321Z,74.36
2023-02-11T21:35:59.419Z,74.62
2023-02-11T21:38:26.237Z,75.14
2023-02-11T21:40:53.038Z,74.43
2023-02-11T21:43:20.130Z,74.59
2023-02-11T21:45:48.621Z,74.70
2023-02-11T21:48:16.230Z,74.94
2023-02-11T21:50:45.503Z,74.65
2023-02-11T21:53:12.235Z,75.11
2023-02-11T21:55:39.496Z,74.72
2023-02-11T21:58:06.932Z,75.04
2023-02-11T22:00:33.767Z,74.95
2023-02-11T22:03:00.459Z,75.40
2023-02-11T22:05:27.280Z,75.30
2023-02-11T22:07:53.743Z,75.68
2023-02-11T22:10:20.227Z,75.76
2023-02-11T22:12:46.859Z,75.09
2023-02-11T22:15:13.383Z,75.30
2023-02-11T22:17:39.760Z,75.36
2023-02-11T22:20:07.250Z,75.47
2023-02-11T22:22:33.741Z,75.28
2023-02-11T22:25:01.789Z,75.58
2023-02-11T22:27:28.231Z,75.27
2023-02-11T22:29:54.713Z,75.42
2023-02-11T22:32:21.125Z,75.05
2023-02-11T22:34:47.502Z,75.83
2023-02-11T22:37:15.003Z,75.84
2023-02-11T22:39:42.631Z,75.09
2023-02-11T22:42:09.233Z,75.35
2023-02-11T22:44:37.195Z,75.84
2023-02-11T22:47:03.753Z,75.36
2023-02-11T22:49:32.340Z,75.31
2023-02-11T22:51:59.298Z,75.26
2023-02-11T22:54:25.777Z,75.63
2023-02-11T22:56:52.503Z,75.48
2023-02-11T22:59:19.738Z,75.18
2023-02-11T23:01:46.330Z,75.51
2023-02-11T23:04:15.781Z,75.27
2023-02-11T23:06:42.655Z,75.88
2023-02-11T23:09:12.158Z,75.79
2023-02-11T23:11:39.590Z,75.40
2023-02-11T23:14:08.513Z,75.72
2023-02-11T23:16:35.382Z,75.68
2023-02-11T23:19:06.138Z,75.43
2023-02-11T23:21:35.427Z,76.00
2023-02-11T23:24:05.405Z,75.71
2023-02-11T23:26:31.837Z,75.23
2023-02-11T23:28:59.276Z,75.99
2023-02-11T23:31:29.549Z,75.61
2023-02-11T23:33:56.534Z,75.44
2023-02-11T23:36:23.859Z,75.46
2023-02-11T23:38:50.944Z,75.77
2023-02-11T23:41:17.753Z,75.41
2023-02-11T23:43:44.536Z,75.78
2023-02-11T23:46:11.071Z,75.65
2023-02-11T23:48:37.822Z,75.84
2023-02-11T23:51:04.584Z,75.63
2023-02-11T23:53:30.950Z,75.57
2023-02-11T23:55:57.579Z,75.91
2023-02-11T23:58:24.354Z,75.89
